Time;durP1;ratioP1;P1;durP2;ratioP2;P2;SDS_P1;SDS_P2;PMS_P1;PMS_P2;Temp;Humidity;BMP_temperature;BMP_pressure;BME280_temperature;BME280_humidity;BME280_pressure;Samples;Min_cycle;Max_cycle;Signal;HPM_P1;HPM_P2
2023/11/16 00:02:05;;;;;;;;;15.50;14.50;;;;;12.97;82.75;101572.16;5061630;28;45638;-69
2023/11/16 00:04:34;;;;;;;;;16.00;14.75;;;;;12.96;82.94;101562.38;5061568;28;46086;-69
2023/11/16 00:07:00;;;;;;;;;14.50;14.25;;;;;12.96;82.92;101551.66;5062454;28;45383;-69
2023/11/16 00:09:27;;;;;;;;;17.25;17.00;;;;;12.91;82.92;101541.97;5062744;28;45359;-69
2023/11/16 00:11:52;;;;;;;;;16.25;15.00;;;;;12.96;82.86;101540.94;5074941;28;45809;-69
2023/11/16 00:14:18;;;;;;;;;16.50;13.00;;;;;12.97;82.68;101539.13;5069906;28;47128;-69
2023/11/16 00:16:44;;;;;;;;;16.00;14.00;;;;;12.94;83.23;101529.34;5076090;27;45393;-70
2023/11/16 00:19:10;;;;;;;;;16.00;13.75;;;;;12.97;82.94;101537.31;5061623;27;45784;-69
2023/11/16 00:21:36;;;;;;;;;17.25;14.00;;;;;12.97;83.06;101523.91;5074528;28;45302;-69
2023/11/16 00:24:05;;;;;;;;;16.00;14.25;;;;;12.96;83.12;101503.41;5074977;27;46742;-69
2023/11/16 00:26:33;;;;;;;;;14.75;14.00;;;;;13.01;83.00;101505.06;5062117;28;45527;-69
2023/11/16 00:28:59;;;;;;;;;15.75;14.00;;;;;12.92;82.90;101480.28;5074634;27;45377;-69
2023/11/16 00:31:24;;;;;;;;;11.25;11.25;;;;;12.93;83.04;101479.38;5061260;28;45602;-69
2023/11/16 00:33:50;;;;;;;;;11.50;11.50;;;;;13.02;83.01;101488.06;5060301;28;74057;-69
2023/11/16 00:36:15;;;;;;;;;13.00;11.00;;;;;13.00;83.06;101482.75;5068276;28;45487;-69
2023/11/16 00:38:41;;;;;;;;;13.50;13.00;;;;;13.01;83.21;101484.50;5074743;27;45287;-69
2023/11/16 00:41:15;;;;;;;;;11.00;9.00;;;;;13.03;83.02;101485.34;5060020;28;71979;-69
2023/11/16 00:43:40;;;;;;;;;11.00;11.00;;;;;13.06;83.23;101484.34;5072704;28;46353;-69
2023/11/16 00:46:08;;;;;;;;;13.75;10.50;;;;;13.06;83.08;101477.19;5070687;27;45412;-69
2023/11/16 00:48:34;;;;;;;;;12.50;9.75;;;;;13.06;83.28;101470.97;5061362;28;45413;-69
2023/11/16 00:50:59;;;;;;;;;12.75;11.75;;;;;13.06;83.11;101457.56;5059154;28;45336;-69
2023/11/16 00:53:25;;;;;;;;;14.25;13.00;;;;;13.07;83.09;101451.28;5069013;28;74750;-69
2023/11/16 00:55:51;;;;;;;;;14.00;12.00;;;;;13.07;82.81;101453.97;5068293;27;45375;-69
2023/11/16 00:58:17;;;;;;;;;11.50;11.00;;;;;13.05;83.00;101445.97;5061218;28;45296;-69
2023/11/16 01:00:42;;;;;;;;;12.75;12.75;;;;;13.06;83.39;101446.84;5060791;28;45353;-69
2023/11/16 01:03:07;;;;;;;;;15.00;13.25;;;;;13.09;83.34;101452.09;5060145;28;68384;-69
2023/11/16 01:05:33;;;;;;;;;14.50;13.00;;;;;13.06;83.18;101450.38;5060269;28;73163;-69
2023/11/16 01:07:58;;;;;;;;;15.50;13.50;;;;;13.08;83.27;101450.34;5070024;28;45374;-69
2023/11/16 01:10:24;;;;;;;;;17.00;16.00;;;;;13.08;83.12;101444.97;5067394;27;62610;-70
2023/11/16 01:12:53;;;;;;;;;17.50;13.75;;;;;13.03;83.07;101441.56;5071492;27;47116;-69
2023/11/16 01:15:20;;;;;;;;;16.00;15.00;;;;;13.00;83.42;101438.97;5061317;28;45291;-70
2023/11/16 01:17:46;;;;;;;;;15.75;15.00;;;;;13.01;82.98;101443.44;5071354;28;45316;-69
2023/11/16 01:20:18;;;;;;;;;21.00;18.50;;;;;13.04;83.25;101446.00;5063334;27;45657;-69
2023/11/16 01:23:02;;;;;;;;;18.00;18.00;;;;;13.02;83.23;101431.78;5080901;28;45460;-69
2023/11/16 01:25:27;;;;;;;;;18.00;17.25;;;;;13.00;83.42;101428.25;5061555;27;45508;-69
2023/11/16 01:27:57;;;;;;;;;21.00;18.50;;;;;13.01;83.28;101424.66;5072568;28;45266;-69
2023/11/16 01:30:24;;;;;;;;;22.50;18.50;;;;;13.00;83.33;101429.16;5061580;27;45480;-70
2023/11/16 01:32:49;;;;;;;;;18.00;15.00;;;;;12.98;83.63;101417.63;5060288;28;45485;-70
2023/11/16 01:35:15;;;;;;;;;22.50;17.75;;;;;12.99;83.48;101411.31;5059907;28;45366;-69
2023/11/16 01:37:42;;;;;;;;;18.50;16.50;;;;;12.99;83.63;101408.63;5069767;28;45609;-69
2023/11/16 01:40:08;;;;;;;;;17.50;17.00;;;;;12.98;83.63;101409.56;5073474;28;45339;-69
2023/11/16 01:42:34;;;;;;;;;18.75;18.75;;;;;12.99;83.41;101411.31;5062680;28;45264;-69
2023/11/16 01:44:59;;;;;;;;;22.75;20.25;;;;;12.97;83.67;101407.81;5071607;27;45430;-69
2023/11/16 01:47:25;;;;;;;;;21.50;20.00;;;;;12.98;83.48;101410.44;5073200;28;46161;-69
2023/11/16 01:49:51;;;;;;;;;21.00;17.75;;;;;12.98;83.40;101399.72;5060264;27;45593;-69
2023/11/16 01:52:17;;;;;;;;;23.50;23.50;;;;;12.97;83.40;101397.97;5059889;28;46347;-69
2023/11/16 01:54:43;;;;;;;;;24.75;23.00;;;;;12.96;83.38;101393.53;5060011;28;45611;-69
2023/11/16 01:57:09;;;;;;;;;26.00;23.25;;;;;12.96;83.14;101389.97;5061873;28;45470;-69
2023/11/16 01:59:35;;;;;;;;;30.00;26.25;;;;;12.93;83.37;101388.28;5060043;28;45382;-70
2023/11/16 02:02:04;;;;;;;;;32.00;28.00;;;;;12.95;83.17;101382.88;5058774;28;45989;-69
2023/11/16 02:04:31;;;;;;;;;24.75;24.00;;;;;12.96;83.17;101393.53;5059967;28;45342;-69
2023/11/16 02:06:58;;;;;;;;;25.75;23.50;;;;;12.98;83.14;101390.81;5071900;28;45561;-69
2023/11/16 02:09:23;;;;;;;;;16.50;13.50;;;;;12.99;83.07;101392.56;5060211;28;45414;-69
2023/11/16 02:11:48;;;;;;;;;26.25;23.75;;;;;12.98;83.40;101390.81;5059152;28;57947;-69
2023/11/16 02:14:14;;;;;;;;;21.75;21.75;;;;;13.02;83.31;101405.00;5066591;28;69167;-69
2023/11/16 02:16:39;;;;;;;;;26.75;23.25;;;;;13.03;83.26;101396.00;5065537;27;45592;-69
2023/11/16 02:19:16;;;;;;;;;26.75;24.50;;;;;13.00;82.92;101398.78;5059687;27;45521;-69
2023/11/16 02:21:43;;;;;;;;;24.00;23.50;;;;;12.98;83.18;101399.72;5073225;28;45436;-69
2023/11/16 02:24:11;;;;;;;;;22.25;18.50;;;;;13.00;83.14;101391.63;5064630;28;45640;-69
2023/11/16 02:26:37;;;;;;;;;21.75;20.00;;;;;13.00;83.21;101385.38;5059504;28;45363;-69
2023/11/16 02:29:04;;;;;;;;;23.25;22.25;;;;;12.97;83.22;101378.34;5059544;28;45402;-69
2023/11/16 02:31:29;;;;;;;;;25.75;24.50;;;;;12.96;83.11;101377.47;5059214;28;46068;-70
2023/11/16 02:33:56;;;;;;;;;21.25;19.75;;;;;12.94;83.32;101368.56;5063510;28;45590;-69
2023/11/16 02:36:21;;;;;;;;;19.50;17.25;;;;;12.94;83.46;101362.34;5066434;28;45399;-69
2023/11/16 02:38:46;;;;;;;;;21.25;20.75;;;;;12.95;83.48;101356.94;5073226;28;65975;-69
2023/11/16 02:41:14;;;;;;;;;22.00;18.75;;;;;12.93;83.45;101347.19;5063246;28;75671;-69
2023/11/16 02:43:41;;;;;;;;;20.75;20.00;;;;;12.91;83.43;101357.97;5066990;28;45630;-70
2023/11/16 02:46:06;;;;;;;;;20.25;17.25;;;;;12.93;83.64;101353.44;5064309;27;45327;-69
2023/11/16 02:48:31;;;;;;;;;16.00;16.00;;;;;12.95;83.18;101353.41;5058332;28;73144;-69
2023/11/16 02:50:56;;;;;;;;;20.75;15.50;;;;;12.97;83.55;101348.84;5058826;28;45425;-69
2023/11/16 02:53:22;;;;;;;;;14.75;13.25;;;;;12.95;83.45;101348.03;5059102;28;45315;-69
2023/11/16 02:55:47;;;;;;;;;16.00;13.50;;;;;12.92;83.53;101324.88;5059047;28;45488;-69
2023/11/16 02:58:12;;;;;;;;;15.50;14.25;;;;;12.92;83.59;101322.19;5058348;28;71543;-69
2023/11/16 03:00:38;;;;;;;;;15.75;12.75;;;;;12.89;83.36;101327.66;5059592;28;60158;-70
2023/11/16 03:03:05;;;;;;;;;12.50;11.50;;;;;12.92;83.63;101330.25;5061599;28;67053;-69
2023/11/16 03:05:32;;;;;;;;;14.25;10.25;;;;;12.93;83.91;101325.75;5059083;28;45334;-70
2023/11/16 03:07:58;;;;;;;;;9.00;7.75;;;;;12.91;83.88;101317.78;5058967;28;45437;-70
2023/11/16 03:10:23;;;;;;;;;11.50;11.50;;;;;12.94;83.61;101309.63;5061205;28;46553;-69
2023/11/16 03:12:49;;;;;;;;;9.00;9.00;;;;;12.95;83.91;101313.19;5072145;27;45347;-69
2023/11/16 03:15:15;;;;;;;;;18.75;14.75;;;;;12.97;83.74;101308.66;5073066;27;45705;-69
2023/11/16 03:17:43;;;;;;;;;9.75;9.00;;;;;12.98;83.67;101299.69;5059109;28;45384;-69
2023/11/16 03:20:14;;;;;;;;;11.50;10.50;;;;;12.98;83.57;101294.34;5059475;28;46915;-69
2023/11/16 03:22:39;;;;;;;;;7.25;6.00;;;;;12.98;83.73;101297.03;5077470;27;45567;-69
2023/11/16 03:25:06;;;;;;;;;11.75;11.00;;;;;12.97;83.59;101293.44;5058774;28;45422;-69
2023/11/16 03:27:35;;;;;;;;;16.50;12.50;;;;;12.94;83.38;101271.25;5059005;28;45294;-69
2023/11/16 03:30:02;;;;;;;;;11.75;11.75;;;;;12.95;83.66;101271.19;5058543;28;46267;-69
2023/11/16 03:32:28;;;;;;;;;11.25;10.50;;;;;12.96;83.62;101266.69;5058661;28;45531;-69
2023/11/16 03:34:54;;;;;;;;;12.25;10.50;;;;;12.96;83.59;101258.66;5061431;28;45408;-69
2023/11/16 03:37:19;;;;;;;;;15.00;12.75;;;;;12.93;83.47;101246.25;5072868;28;64904;-69
2023/11/16 03:39:47;;;;;;;;;14.00;11.00;;;;;12.91;83.50;101234.72;5061248;28;75513;-69
2023/11/16 03:42:12;;;;;;;;;15.00;13.25;;;;;12.92;83.86;101246.31;5058713;28;45274;-69
2023/11/16 03:44:38;;;;;;;;;11.25;11.25;;;;;12.90;83.71;101232.09;5073401;28;45369;-69
2023/11/16 03:47:04;;;;;;;;;19.00;15.00;;;;;12.83;83.65;101215.34;5057607;28;71311;-69
2023/11/16 03:49:29;;;;;;;;;14.25;12.00;;;;;12.90;83.67;101229.41;5058277;28;46969;-69
2023/11/16 03:51:55;;;;;;;;;10.50;9.00;;;;;12.88;83.56;101217.84;5058351;28;45509;-69
2023/11/16 03:54:20;;;;;;;;;16.00;13.75;;;;;12.89;83.71;101201.72;5061315;28;45416;-69
2023/11/16 03:56:49;;;;;;;;;16.25;13.00;;;;;12.94;83.39;101201.56;5067700;28;73376;-69
2023/11/16 03:59:18;;;;;;;;;11.00;11.00;;;;;12.92;83.54;101201.63;5058238;28;47273;-69
2023/11/16 04:01:44;;;;;;;;;12.50;11.75;;;;;12.94;83.56;101204.25;5058417;28;45659;-69
2023/11/16 04:04:12;;;;;;;;;11.25;10.50;;;;;12.94;83.89;101218.50;5066285;28;45509;-69
2023/11/16 04:06:38;;;;;;;;;12.50;11.50;;;;;12.95;83.75;101206.88;5058471;28;45800;-69
2023/11/16 04:09:06;;;;;;;;;7.50;7.50;;;;;12.93;83.57;101203.38;5057924;28;46176;-69
2023/11/16 04:11:31;;;;;;;;;12.00;9.00;;;;;12.92;83.39;101198.94;5070510;28;45668;-69
2023/11/16 04:13:57;;;;;;;;;11.25;11.25;;;;;12.95;83.49;101193.47;5064729;27;45463;-69
2023/11/16 04:16:24;;;;;;;;;10.50;10.50;;;;;12.94;83.46;101193.53;5066502;27;45253;-69
2023/11/16 04:18:55;;;;;;;;;11.50;11.00;;;;;12.95;83.52;101189.94;5057831;28;45910;-69
2023/11/16 04:21:21;;;;;;;;;13.00;12.50;;;;;12.94;83.37;101188.16;5067424;28;45648;-69
2023/11/16 04:23:52;;;;;;;;;12.00;9.75;;;;;12.92;83.49;101188.22;5074040;27;45251;-69
2023/11/16 04:26:20;;;;;;;;;10.50;10.00;;;;;12.89;83.54;101172.25;5060420;28;45477;-69
2023/11/16 04:28:51;;;;;;;;;11.25;11.00;;;;;12.92;83.66;101168.59;5061193;28;47132;-69
2023/11/16 04:31:17;;;;;;;;;13.25;12.50;;;;;12.92;83.32;101164.09;5074102;28;45491;-69
2023/11/16 04:33:42;;;;;;;;;12.50;11.50;;;;;12.92;83.45;101165.91;5062131;27;45422;-69
2023/11/16 04:36:08;;;;;;;;;13.50;12.25;;;;;12.92;83.73;101156.06;5066480;28;45365;-69
2023/11/16 04:38:34;;;;;;;;;20.50;15.00;;;;;12.90;83.39;101144.53;5075210;27;46324;-69
2023/11/16 04:41:02;;;;;;;;;14.50;12.00;;;;;12.91;83.56;101135.59;5061544;28;45483;-69
2023/11/16 04:43:30;;;;;;;;;13.50;13.00;;;;;12.94;83.60;101140.81;5063573;28;45407;-69
2023/11/16 04:45:56;;;;;;;;;14.50;14.50;;;;;12.95;83.12;101139.03;5060730;28;45280;-69
2023/11/16 04:48:21;;;;;;;;;14.25;13.50;;;;;12.89;83.37;101128.50;5074130;28;45331;-69
2023/11/16 04:50:46;;;;;;;;;15.75;15.00;;;;;12.89;83.68;101125.84;5072018;28;45547;-69
2023/11/16 04:53:11;;;;;;;;;12.25;12.00;;;;;12.88;83.48;101118.72;5060893;28;45330;-69
2023/11/16 04:55:37;;;;;;;;;13.00;13.00;;;;;12.85;83.18;101097.41;5059486;28;71925;-69
2023/11/16 04:58:02;;;;;;;;;12.00;10.50;;;;;12.84;83.43;101079.59;5060291;28;66981;-69
2023/11/16 05:00:28;;;;;;;;;11.50;11.00;;;;;12.83;83.35;101073.38;5060821;28;45359;-69
2023/11/16 05:02:53;;;;;;;;;13.75;12.00;;;;;12.82;83.51;101068.91;5073691;27;58586;-69
2023/11/16 05:05:18;;;;;;;;;9.75;9.50;;;;;12.81;83.67;101064.47;5059737;28;73141;-69
2023/11/16 05:07:44;;;;;;;;;13.75;12.00;;;;;12.82;83.75;101063.56;5068158;28;45375;-69
2023/11/16 05:10:11;;;;;;;;;12.50;11.00;;;;;12.72;83.48;101040.72;5067421;27;45338;-68
2023/11/16 05:12:39;;;;;;;;;10.50;8.75;;;;;12.76;83.93;101042.34;5061615;28;45415;-68
2023/11/16 05:15:06;;;;;;;;;15.50;13.00;;;;;12.74;84.08;101034.38;5066215;27;45500;-69
2023/11/16 05:17:32;;;;;;;;;12.25;11.00;;;;;12.73;84.43;101043.34;5060817;28;46567;-69
2023/11/16 05:19:57;;;;;;;;;2.75;0.00;;;;;12.71;84.38;101031.81;5064435;27;45433;-69
2023/11/16 05:22:23;;;;;;;;;12.50;12.50;;;;;12.70;84.22;101034.56;5070479;28;67964;-69
2023/11/16 05:24:48;;;;;;;;;12.75;12.25;;;;;12.68;84.52;101025.69;5067418;27;45448;-69
2023/11/16 05:27:14;;;;;;;;;15.00;11.75;;;;;12.60;84.81;101010.78;5059736;28;68258;-69
2023/11/16 05:29:39;;;;;;;;;14.75;12.50;;;;;12.67;84.73;101042.69;5061227;28;45427;-68
2023/11/16 05:32:06;;;;;;;;;15.00;13.00;;;;;12.67;84.99;101048.91;5060258;28;68166;-69
2023/11/16 05:34:32;;;;;;;;;10.75;10.75;;;;;12.67;85.43;101043.56;5060648;28;45550;-69
2023/11/16 05:36:57;;;;;;;;;11.00;9.25;;;;;12.66;85.45;101032.91;5071997;28;45426;-68
2023/11/16 05:39:22;;;;;;;;;11.25;7.25;;;;;12.71;85.52;101030.94;5066373;27;73334;-69
2023/11/16 05:41:48;;;;;;;;;13.00;10.50;;;;;12.75;85.65;101021.88;5072521;28;45537;-69
2023/11/16 05:44:13;;;;;;;;;13.00;11.00;;;;;12.77;85.80;101028.03;5062442;28;45410;-69
2023/11/16 05:46:39;;;;;;;;;4.00;2.50;;;;;12.75;85.58;101020.06;5060501;28;46940;-69
2023/11/16 05:49:06;;;;;;;;;11.00;10.75;;;;;12.74;nan;101006.72;5072450;28;71988;-69
2023/11/16 05:51:33;;;;;;;;;12.75;11.25;;;;;12.70;85.47;100989.88;5069238;28;45366;-69
2023/11/16 05:53:58;;;;;;;;;9.00;8.25;;;;;12.69;85.37;100969.38;5060100;28;45451;-69
2023/11/16 05:56:24;;;;;;;;;10.50;9.75;;;;;12.68;85.62;100948.91;5059894;28;45259;-69
2023/11/16 05:58:49;;;;;;;;;12.00;8.75;;;;;12.72;85.64;100947.84;5059995;28;45275;-69
2023/11/16 06:01:14;;;;;;;;;13.00;9.25;;;;;12.68;85.96;100922.13;5064338;28;63543;-69
2023/11/16 06:03:39;;;;;;;;;11.50;10.50;;;;;12.68;85.84;100914.09;5061029;27;45379;-69
2023/11/16 06:06:05;;;;;;;;;7.50;7.50;;;;;12.63;85.74;100921.44;5072185;28;55628;-69
2023/11/16 06:08:31;;;;;;;;;9.75;9.25;;;;;12.59;85.88;100917.09;5059808;28;45331;-69
2023/11/16 06:10:57;;;;;;;;;10.00;10.00;;;;;12.59;86.46;100925.13;5064248;28;45419;-69
2023/11/16 06:13:22;;;;;;;;;11.75;10.75;;;;;12.59;86.29;100909.94;5068569;28;45442;-69
2023/11/16 06:15:49;;;;;;;;;9.75;9.50;;;;;12.59;86.30;100896.53;5077766;27;46051;-68
2023/11/16 06:18:14;;;;;;;;;11.75;10.75;;;;;12.58;86.51;100883.25;5069894;27;45403;-70
2023/11/16 06:20:40;;;;;;;;;9.75;9.75;;;;;12.55;86.45;100862.78;5062656;27;45458;-70
2023/11/16 06:23:06;;;;;;;;;10.25;10.00;;;;;12.52;86.80;100852.19;5075977;28;45650;-70
2023/11/16 06:25:32;;;;;;;;;7.75;6.25;;;;;12.52;87.12;100840.63;5072271;28;47489;-71
2023/11/16 06:27:57;;;;;;;;;11.00;8.50;;;;;12.47;86.95;100829.22;5066514;28;45438;-70
2023/11/16 06:30:24;;;;;;;;;10.25;8.00;;;;;12.47;87.03;100824.72;5068111;28;45395;-70
2023/11/16 06:32:49;;;;;;;;;7.25;7.25;;;;;12.48;87.16;100830.94;5075984;28;45386;-70
2023/11/16 06:35:15;;;;;;;;;12.50;12.50;;;;;12.47;87.16;100821.19;5063798;28;46023;-70
2023/11/16 06:37:40;;;;;;;;;14.00;12.00;;;;;12.33;87.43;100781.56;5067283;27;45297;-70
2023/11/16 06:40:09;;;;;;;;;12.75;12.25;;;;;12.44;87.54;100783.81;5070744;28;52847;-70
2023/11/16 06:42:36;;;;;;;;;13.25;10.75;;;;;12.42;87.61;100762.47;5073385;28;45622;-70
2023/11/16 06:45:07;;;;;;;;;11.00;10.00;;;;;12.41;87.67;100766.06;5070821;28;46262;-69
2023/11/16 06:47:33;;;;;;;;;13.75;12.75;;;;;12.35;87.81;100750.28;5065281;28;45505;-69
2023/11/16 06:50:00;;;;;;;;;11.50;8.75;;;;;12.36;87.85;100747.53;5059463;28;45477;-69
2023/11/16 06:52:26;;;;;;;;;10.50;9.75;;;;;12.33;88.11;100725.34;5058702;28;45433;-70
2023/11/16 06:54:55;;;;;;;;;11.00;11.00;;;;;12.31;88.19;100713.84;5066550;28;46277;-70
2023/11/16 06:57:26;;;;;;;;;11.50;9.00;;;;;12.29;88.42;100694.31;5067829;27;45526;-70
2023/11/16 06:59:55;;;;;;;;;12.00;7.75;;;;;12.26;88.16;100689.06;5059035;28;45339;-70
2023/11/16 07:02:21;;;;;;;;;9.75;8.50;;;;;12.26;88.23;100683.72;5071027;28;45534;-70
2023/11/16 07:04:47;;;;;;;;;10.25;9.75;;;;;12.23;88.40;100668.66;5069214;28;45395;-70
2023/11/16 07:07:13;;;;;;;;;7.25;6.25;;;;;12.21;88.57;100658.03;5068201;28;45307;-65
2023/11/16 07:09:39;;;;;;;;;10.75;7.50;;;;;12.17;88.75;100634.13;5061180;28;45625;-65
2023/11/16 07:12:04;;;;;;;;;7.25;6.50;;;;;12.21;88.95;100623.22;5069758;27;45589;-69
2023/11/16 07:14:30;;;;;;;;;9.75;9.75;;;;;12.24;88.95;100632.91;5064542;28;46030;-69
2023/11/16 07:16:56;;;;;;;;;7.00;7.00;;;;;12.22;89.07;100622.28;5068548;28;45436;-69
2023/11/16 07:19:22;;;;;;;;;5.00;4.50;;;;;12.26;89.14;100631.03;5059672;28;45640;-69
2023/11/16 07:21:48;;;;;;;;;6.00;6.00;;;;;12.25;88.62;100621.28;5073454;28;45454;-67
2023/11/16 07:24:14;;;;;;;;;6.25;6.25;;;;;12.16;88.94;100602.94;5078955;27;45911;-67
2023/11/16 07:26:40;;;;;;;;;5.50;5.00;;;;;12.22;89.06;100590.16;5071833;27;45366;-68
2023/11/16 07:29:05;;;;;;;;;6.00;6.00;;;;;12.21;89.23;100572.38;5067162;28;45356;-68
2023/11/16 07:31:31;;;;;;;;;6.75;6.00;;;;;12.18;88.92;100563.63;5064145;27;45335;-68
2023/11/16 07:33:57;;;;;;;;;10.25;6.25;;;;;12.13;89.10;100553.09;5069871;28;46063;-68
2023/11/16 07:36:26;;;;;;;;;6.00;5.50;;;;;12.14;89.26;100562.00;5079893;27;46904;-68
2023/11/16 07:38:53;;;;;;;;;10.50;10.25;;;;;12.07;89.31;100537.28;5062987;27;45283;-69
2023/11/16 07:41:20;;;;;;;;;3.75;3.75;;;;;12.11;89.51;100538.94;5058361;28;45312;-68
2023/11/16 07:43:45;;;;;;;;;6.25;5.00;;;;;12.13;89.31;100545.06;5067225;28;45430;-68
2023/11/16 07:46:12;;;;;;;;;7.00;6.00;;;;;12.12;89.66;100542.47;5069369;27;45338;-68
2023/11/16 07:48:37;;;;;;;;;4.75;4.75;;;;;12.13;89.78;100533.47;5065142;28;45498;-68
2023/11/16 07:51:02;;;;;;;;;9.25;6.00;;;;;12.03;89.97;100509.81;5057910;28;45451;-68
2023/11/16 07:53:28;;;;;;;;;6.25;6.25;;;;;12.11;90.04;100521.97;5059414;28;45941;-66
2023/11/16 07:55:54;;;;;;;;;6.75;4.75;;;;;12.09;89.93;100529.22;5058346;28;45321;-67
2023/11/16 07:58:20;;;;;;;;;9.25;7.00;;;;;12.06;90.09;100548.91;5067686;27;45460;-67
2023/11/16 08:00:55;;;;;;;;;5.75;4.00;;;;;12.08;90.43;100564.91;5073888;27;45361;-67
2023/11/16 08:06:07;;;;;;;;;5.25;3.50;;;;;12.11;90.52;100570.13;5080778;28;45624;-69
2023/11/16 08:08:32;;;;;;;;;5.00;4.00;;;;;12.10;90.54;100550.56;5066075;27;45539;-68
2023/11/16 08:10:58;;;;;;;;;5.50;4.00;;;;;12.14;90.47;100544.13;5066571;28;62484;-68
2023/11/16 08:13:24;;;;;;;;;3.25;3.25;;;;;12.14;89.97;100537.91;5062888;27;45426;-69
2023/11/16 08:15:52;;;;;;;;;4.00;2.25;;;;;12.14;89.97;100554.81;5066085;27;45425;-69
2023/11/16 08:18:22;;;;;;;;;2.00;2.00;;;;;12.14;90.42;100559.31;5069902;27;46454;-69
2023/11/16 08:20:47;;;;;;;;;2.25;2.25;;;;;12.16;90.61;100546.72;5067610;27;45456;-69
2023/11/16 08:23:13;;;;;;;;;3.50;3.50;;;;;12.15;90.55;100529.81;5073585;27;46112;-69
2023/11/16 08:25:38;;;;;;;;;3.50;3.50;;;;;12.17;90.35;100519.91;5070915;27;45492;-69
2023/11/16 08:28:07;;;;;;;;;2.00;2.00;;;;;12.13;90.37;100493.34;5075391;27;45523;-69
2023/11/16 08:30:33;;;;;;;;;4.00;3.00;;;;;12.13;90.34;100470.16;5075304;27;45901;-69
2023/11/16 08:33:00;;;;;;;;;3.00;3.00;;;;;12.18;90.74;100478.00;5063077;28;74434;-69
2023/11/16 08:35:25;;;;;;;;;3.75;3.00;;;;;12.13;90.51;100478.19;5070293;27;46371;-69
2023/11/16 08:37:53;;;;;;;;;6.00;4.00;;;;;12.16;90.12;100480.72;5064902;27;45561;-65
2023/11/16 08:40:19;;;;;;;;;2.75;2.75;;;;;12.16;90.41;100480.72;5068272;27;45330;-68
2023/11/16 08:42:47;;;;;;;;;4.00;2.50;;;;;12.15;90.54;100480.78;5079395;27;46009;-66
2023/11/16 08:45:18;;;;;;;;;3.00;2.00;;;;;12.16;90.34;100482.50;5070435;27;45591;-66
2023/11/16 08:47:48;;;;;;;;;3.75;3.75;;;;;12.14;90.67;100469.19;5080016;27;45374;-66
2023/11/16 08:50:16;;;;;;;;;3.00;2.50;;;;;12.14;90.78;100445.13;5074809;27;45384;-66
2023/11/16 08:52:47;;;;;;;;;9.00;3.00;;;;;12.16;91.03;100440.59;5061219;27;47072;-66
2023/11/16 08:55:12;;;;;;;;;3.00;3.00;;;;;12.14;90.59;100429.06;5071149;28;45686;-66
2023/11/16 08:57:42;;;;;;;;;3.00;2.00;;;;;12.19;90.94;100442.25;5079198;27;45492;-66
2023/11/16 09:03:08;;;;;;;;;6.25;3.00;;;;;12.19;90.76;100428.88;5056188;27;46551;-66
2023/11/16 09:05:35;;;;;;;;;3.00;2.50;;;;;12.14;90.97;100409.47;5063433;27;45581;-66
2023/11/16 09:08:01;;;;;;;;;3.00;2.25;;;;;12.20;91.12;100410.06;5073097;27;45452;-66
2023/11/16 09:10:31;;;;;;;;;4.75;4.00;;;;;12.14;91.27;100383.59;5071446;27;45846;-68
2023/11/16 09:12:59;;;;;;;;;2.50;2.00;;;;;12.19;91.25;100381.56;5071395;27;46246;-66
2023/11/16 09:15:25;;;;;;;;;5.00;3.00;;;;;12.15;91.13;100347.00;5068992;27;45813;-66
2023/11/16 09:17:51;;;;;;;;;3.50;3.00;;;;;12.12;91.28;100326.59;5073648;27;45344;-67
2023/11/16 09:20:20;;;;;;;;;2.00;2.00;;;;;12.15;91.41;100334.50;5068960;28;45382;-66
2023/11/16 09:22:49;;;;;;;;;3.25;2.25;;;;;12.15;91.66;100314.91;5076450;27;45922;-67
2023/11/16 09:25:15;;;;;;;;;3.00;2.00;;;;;12.16;91.32;100312.16;5062973;27;45710;-66
2023/11/16 09:27:50;;;;;;;;;2.25;2.00;;;;;12.15;91.34;100312.22;5078039;27;45413;-66
2023/11/16 09:30:17;;;;;;;;;3.00;2.50;;;;;12.15;91.44;100306.88;5068231;27;45351;-67
2023/11/16 09:32:43;;;;;;;;;2.00;2.00;;;;;12.14;91.25;100292.59;5077504;27;46318;-67
2023/11/16 09:35:09;;;;;;;;;4.25;2.50;;;;;12.12;91.03;100277.59;5079427;27;45405;-66
2023/11/16 09:37:35;;;;;;;;;2.00;2.00;;;;;12.07;90.92;100253.72;5083508;27;45396;-67
2023/11/16 09:40:05;;;;;;;;;3.00;2.00;;;;;12.08;91.54;100246.53;5076823;27;45304;-66
2023/11/16 09:42:33;;;;;;;;;1.50;1.50;;;;;12.05;91.56;100237.72;5073235;27;46954;-66
2023/11/16 09:45:02;;;;;;;;;1.00;1.00;;;;;12.11;91.33;100222.31;5073681;27;45429;-67
2023/11/16 09:47:31;;;;;;;;;1.00;1.00;;;;;12.06;90.80;100198.47;5073351;27;45482;-66
2023/11/16 09:49:56;;;;;;;;;2.00;1.50;;;;;12.08;91.24;100203.75;5059024;27;45651;-66
2023/11/16 09:52:33;;;;;;;;;1.25;1.25;;;;;12.01;91.29;100200.47;5062063;27;47233;-66
2023/11/16 09:55:01;;;;;;;;;3.25;1.50;;;;;12.01;91.54;100182.66;5070866;28;45552;-66
2023/11/16 09:57:33;;;;;;;;;1.00;1.00;;;;;12.01;91.39;100168.38;5066440;27;45404;-67
2023/11/16 09:59:59;;;;;;;;;1.00;1.00;;;;;12.04;91.53;100155.75;5064539;27;45727;-66
2023/11/16 10:02:25;;;;;;;;;1.00;1.00;;;;;12.07;91.49;100137.81;5073247;27;46053;-67
2023/11/16 10:04:53;;;;;;;;;1.00;1.00;;;;;12.06;91.26;100126.22;5064556;27;45646;-66
2023/11/16 10:07:25;;;;;;;;;1.25;1.00;;;;;12.03;91.16;100124.59;5069254;27;45655;-67
2023/11/16 10:09:53;;;;;;;;;3.00;2.00;;;;;12.00;91.50;100127.41;5066188;28;45544;-66
2023/11/16 10:12:20;;;;;;;;;1.00;1.00;;;;;12.03;90.91;100113.88;5068645;27;45485;-68
2023/11/16 10:14:52;;;;;;;;;1.00;1.00;;;;;12.00;91.20;100116.72;5059468;28;45410;-67
2023/11/16 10:17:21;;;;;;;;;3.00;2.00;;;;;11.99;91.07;100106.06;5070993;27;45315;-67
2023/11/16 10:19:46;;;;;;;;;1.75;1.75;;;;;12.00;91.50;100108.69;5069853;27;46513;-66
2023/11/16 10:22:11;;;;;;;;;1.50;1.50;;;;;11.95;91.60;100094.66;5071129;27;45512;-67
2023/11/16 10:24:37;;;;;;;;;2.75;2.75;;;;;11.97;91.53;100090.09;5061084;28;73853;-66
2023/11/16 10:27:02;;;;;;;;;2.00;2.00;;;;;11.97;91.76;100078.53;5068493;27;69593;-67
2023/11/16 10:29:28;;;;;;;;;2.00;2.00;;;;;11.91;91.45;100060.09;5072774;27;45464;-67
2023/11/16 10:31:53;;;;;;;;;2.00;2.00;;;;;11.92;91.61;100067.22;5076917;27;45419;-66
2023/11/16 10:34:23;;;;;;;;;4.25;3.00;;;;;11.91;91.93;100052.06;5063694;28;45375;-67
2023/11/16 10:36:49;;;;;;;;;4.00;2.00;;;;;11.91;92.11;100055.66;5074873;27;45530;-66
2023/11/16 10:39:15;;;;;;;;;5.50;2.25;;;;;11.94;92.08;100049.28;5074971;27;45780;-67
2023/11/16 10:41:42;;;;;;;;;3.75;2.00;;;;;11.93;92.43;100032.38;5059751;27;46256;-67
2023/11/16 10:44:08;;;;;;;;;1.25;0.50;;;;;11.93;92.52;100028.81;5077615;27;45371;-66
2023/11/16 10:46:33;;;;;;;;;1.75;1.75;;;;;11.98;92.77;100024.97;5066326;27;45576;-67
2023/11/16 10:48:59;;;;;;;;;2.00;2.00;;;;;11.99;92.39;100020.50;5073017;27;45516;-67
2023/11/16 10:51:27;;;;;;;;;2.00;2.00;;;;;11.97;92.41;100014.34;5061111;27;46508;-67
2023/11/16 10:53:54;;;;;;;;;2.00;2.00;;;;;11.99;92.01;100004.44;5078142;27;45680;-66
2023/11/16 10:56:19;;;;;;;;;1.00;1.00;;;;;11.95;92.25;99985.00;5074727;27;45784;-66
2023/11/16 10:58:47;;;;;;;;;2.00;2.00;;;;;12.00;92.69;99979.44;5070659;27;45441;-66
2023/11/16 11:01:17;;;;;;;;;1.50;1.50;;;;;12.02;92.38;99965.03;5067137;27;46409;-66
2023/11/16 11:03:44;;;;;;;;;3.00;2.00;;;;;12.00;92.52;99950.88;5078188;27;45647;-67
2023/11/16 11:06:18;;;;;;;;;3.00;2.75;;;;;12.04;92.58;99946.22;5066078;27;45797;-66
2023/11/16 11:08:44;;;;;;;;;3.00;3.00;;;;;12.02;92.42;99932.06;5071225;27;45503;-66
2023/11/16 11:11:11;;;;;;;;;2.00;2.00;;;;;12.04;92.83;99925.72;5064703;27;46520;-67
2023/11/16 11:13:39;;;;;;;;;4.75;2.00;;;;;12.04;92.77;99917.69;5067981;27;45778;-66
2023/11/16 11:16:07;;;;;;;;;3.50;3.00;;;;;12.05;92.95;99902.50;5069655;28;45631;-67
2023/11/16 11:18:43;;;;;;;;;1.00;1.00;;;;;12.09;93.07;99895.16;5077751;27;45576;-67
2023/11/16 11:21:09;;;;;;;;;4.25;3.75;;;;;12.13;92.96;99886.91;5065989;28;45513;-66